sensor_id;sensor_type;location;lat;lon;timestamp;pressure;altitude;pressure_sealevel;temperature;humidity
34370;BME280;20635;55.812;37.560;2022-10-17T00:00:24;100615.25;;;25.10;38.12
34370;BME280;20635;55.812;37.560;2022-10-17T00:02:50;100606.84;;;25.10;38.25
34370;BME280;20635;55.812;37.560;2022-10-17T00:05:15;100602.88;;;25.11;38.35
34370;BME280;20635;55.812;37.560;2022-10-17T00:07:41;100602.88;;;25.11;38.15
34370;BME280;20635;55.812;37.560;2022-10-17T00:10:07;100594.47;;;25.11;38.27
34370;BME280;20635;55.812;37.560;2022-10-17T00:12:33;100582.09;;;25.12;38.12
34370;BME280;20635;55.812;37.560;2022-10-17T00:15:01;100583.78;;;25.13;38.32
34370;BME280;20635;55.812;37.560;2022-10-17T00:17:27;100585.44;;;25.14;38.28
34370;BME280;20635;55.812;37.560;2022-10-17T00:19:53;100588.25;;;25.14;38.29
34370;BME280;20635;55.812;37.560;2022-10-17T00:22:20;100577.03;;;25.14;38.38
34370;BME280;20635;55.812;37.560;2022-10-17T00:24:46;100582.31;;;25.15;38.18
34370;BME280;20635;55.812;37.560;2022-10-17T00:27:11;100576.72;;;25.15;38.23
34370;BME280;20635;55.812;37.560;2022-10-17T00:29:38;100572.75;;;25.16;38.30
34370;BME280;20635;55.812;37.560;2022-10-17T00:32:04;100563.53;;;25.16;38.24
34370;BME280;20635;55.812;37.560;2022-10-17T00:34:30;100554.28;;;25.15;38.33
34370;BME280;20635;55.812;37.560;2022-10-17T00:36:55;100557.09;;;25.15;38.34
34370;BME280;20635;55.812;37.560;2022-10-17T00:39:21;100554.00;;;25.17;38.30
34370;BME280;20635;55.812;37.560;2022-10-17T00:41:47;100555.94;;;25.16;38.19
34370;BME280;20635;55.812;37.560;2022-10-17T00:46:58;100544.72;;;25.16;38.40
34370;BME280;20635;55.812;37.560;2022-10-17T00:49:26;100554.00;;;25.17;38.29
34370;BME280;20635;55.812;37.560;2022-10-17T00:52:04;100539.97;;;25.17;38.45
34370;BME280;20635;55.812;37.560;2022-10-17T00:54:34;100530.69;;;25.16;38.44
34370;BME280;20635;55.812;37.560;2022-10-17T00:57:01;100528.75;;;25.17;38.42
34370;BME280;20635;55.812;37.560;2022-10-17T00:59:27;100518.34;;;25.17;38.43
34370;BME280;20635;55.812;37.560;2022-10-17T01:02:16;100515.53;;;25.17;38.40
34370;BME280;20635;55.812;37.560;2022-10-17T01:04:41;100512.75;;;25.17;38.43
34370;BME280;20635;55.812;37.560;2022-10-17T01:07:08;100506.31;;;25.17;38.31
34370;BME280;20635;55.812;37.560;2022-10-17T01:09:33;100507.13;;;25.17;38.60
34370;BME280;20635;55.812;37.560;2022-10-17T01:17:28;100509.63;;;25.19;38.33
34370;BME280;20635;55.812;37.560;2022-10-17T01:28:06;100479.91;;;25.18;38.44
34370;BME280;20635;55.812;37.560;2022-10-17T01:33:10;100491.13;;;25.18;38.44
34370;BME280;20635;55.812;37.560;2022-10-17T01:35:41;100483.22;;;25.20;38.41
34370;BME280;20635;55.812;37.560;2022-10-17T01:38:16;100476.78;;;25.19;38.49
34370;BME280;20635;55.812;37.560;2022-10-17T01:40:54;100481.25;;;25.20;38.63
34370;BME280;20635;55.812;37.560;2022-10-17T01:43:27;100481.25;;;25.20;38.36
34370;BME280;20635;55.812;37.560;2022-10-17T01:46:05;100463.28;;;25.21;38.42
34370;BME280;20635;55.812;37.560;2022-10-17T01:48:33;100456.84;;;25.21;38.52
34370;BME280;20635;55.812;37.560;2022-10-17T01:53:48;100462.47;;;25.21;38.38
34370;BME280;20635;55.812;37.560;2022-10-17T01:56:15;100455.16;;;25.20;38.40
34370;BME280;20635;55.812;37.560;2022-10-17T01:58:49;100456.00;;;25.20;38.45
34370;BME280;20635;55.812;37.560;2022-10-17T02:01:17;100449.56;;;25.20;38.40
34370;BME280;20635;55.812;37.560;2022-10-17T02:03:44;100455.16;;;25.20;38.31
34370;BME280;20635;55.812;37.560;2022-10-17T02:06:10;100444.78;;;25.20;38.56
34370;BME280;20635;55.812;37.560;2022-10-17T02:08:41;100454.88;;;25.21;38.31
34370;BME280;20635;55.812;37.560;2022-10-17T02:11:10;100464.13;;;25.22;38.42
34370;BME280;20635;55.812;37.560;2022-10-17T02:18:38;100452.91;;;25.22;38.44
34370;BME280;20635;55.812;37.560;2022-10-17T02:21:15;100451.25;;;25.21;38.48
34370;BME280;20635;55.812;37.560;2022-10-17T02:26:10;100441.69;;;25.22;38.57
34370;BME280;20635;55.812;37.560;2022-10-17T02:28:50;100436.06;;;25.22;38.56
34370;BME280;20635;55.812;37.560;2022-10-17T02:31:22;100450.09;;;25.22;38.50
34370;BME280;20635;55.812;37.560;2022-10-17T02:34:08;100447.28;;;25.22;38.54
34370;BME280;20635;55.812;37.560;2022-10-17T02:36:38;100441.69;;;25.22;38.59
34370;BME280;20635;55.812;37.560;2022-10-17T02:39:04;100448.44;;;25.21;38.38
34370;BME280;20635;55.812;37.560;2022-10-17T02:41:32;100448.13;;;25.22;38.52
34370;BME280;20635;55.812;37.560;2022-10-17T02:44:01;100444.47;;;25.22;38.67
34370;BME280;20635;55.812;37.560;2022-10-17T02:46:27;100433.25;;;25.22;38.66
34370;BME280;20635;55.812;37.560;2022-10-17T02:48:59;100428.81;;;25.21;38.71
34370;BME280;20635;55.812;37.560;2022-10-17T02:56:28;100415.59;;;25.21;38.55
34370;BME280;20635;55.812;37.560;2022-10-17T02:58:56;100416.44;;;25.22;38.47
34370;BME280;20635;55.812;37.560;2022-10-17T03:01:23;100416.44;;;25.22;38.77
34370;BME280;20635;55.812;37.560;2022-10-17T03:03:49;100398.78;;;25.21;38.53
34370;BME280;20635;55.812;37.560;2022-10-17T03:06:15;100408.00;;;25.22;38.48
34370;BME280;20635;55.812;37.560;2022-10-17T03:08:41;100406.03;;;25.22;38.66
34370;BME280;20635;55.812;37.560;2022-10-17T03:11:07;100403.22;;;25.22;38.55
34370;BME280;20635;55.812;37.560;2022-10-17T03:13:32;100402.41;;;25.22;38.57
34370;BME280;20635;55.812;37.560;2022-10-17T03:15:59;100394.00;;;25.22;38.67
34370;BME280;20635;55.812;37.560;2022-10-17T03:18:25;100399.28;;;25.23;38.49
34370;BME280;20635;55.812;37.560;2022-10-17T03:20:55;100383.59;;;25.22;38.63
34370;BME280;20635;55.812;37.560;2022-10-17T03:23:21;100383.28;;;25.24;38.56
34370;BME280;20635;55.812;37.560;2022-10-17T03:25:47;100372.06;;;25.24;38.52
34370;BME280;20635;55.812;37.560;2022-10-17T03:28:14;100369.25;;;25.24;38.75
34370;BME280;20635;55.812;37.560;2022-10-17T03:30:40;100372.88;;;25.24;38.50
34370;BME280;20635;55.812;37.560;2022-10-17T03:33:06;100363.63;;;25.24;38.51
34370;BME280;20635;55.812;37.560;2022-10-17T03:35:31;100358.84;;;25.24;38.70
34370;BME280;20635;55.812;37.560;2022-10-17T03:37:58;100360.84;;;25.24;38.61
34370;BME280;20635;55.812;37.560;2022-10-17T03:40:25;100361.66;;;25.24;38.63
34370;BME280;20635;55.812;37.560;2022-10-17T03:42:53;100353.56;;;25.23;38.85
34370;BME280;20635;55.812;37.560;2022-10-17T03:45:19;100362.81;;;25.23;38.61
34370;BME280;20635;55.812;37.560;2022-10-17T03:47:46;100353.56;;;25.23;38.54
34370;BME280;20635;55.812;37.560;2022-10-17T03:50:13;100359.19;;;25.23;38.59
34370;BME280;20635;55.812;37.560;2022-10-17T03:52:41;100360.34;;;25.22;38.67
34370;BME280;20635;55.812;37.560;2022-10-17T03:55:07;100349.13;;;25.22;38.63
34370;BME280;20635;55.812;37.560;2022-10-17T03:57:34;100357.53;;;25.22;38.75
34370;BME280;20635;55.812;37.560;2022-10-17T04:00:00;100342.69;;;25.21;38.73
34370;BME280;20635;55.812;37.560;2022-10-17T04:02:26;100341.00;;;25.20;38.68
34370;BME280;20635;55.812;37.560;2022-10-17T04:04:52;100334.25;;;25.21;38.78
34370;BME280;20635;55.812;37.560;2022-10-17T04:07:18;100332.56;;;25.20;38.57
34370;BME280;20635;55.812;37.560;2022-10-17T04:09:45;100333.72;;;25.19;38.62
34370;BME280;20635;55.812;37.560;2022-10-17T04:12:15;100332.91;;;25.19;38.63
34370;BME280;20635;55.812;37.560;2022-10-17T04:14:42;100333.72;;;25.19;38.70
34370;BME280;20635;55.812;37.560;2022-10-17T04:17:08;100316.91;;;25.19;38.65
34370;BME280;20635;55.812;37.560;2022-10-17T04:19:34;100317.22;;;25.18;38.62
34370;BME280;20635;55.812;37.560;2022-10-17T04:22:03;100326.47;;;25.18;38.66
34370;BME280;20635;55.812;37.560;2022-10-17T04:24:33;100313.28;;;25.19;38.63
34370;BME280;20635;55.812;37.560;2022-10-17T04:27:12;100317.72;;;25.20;38.56
34370;BME280;20635;55.812;37.560;2022-10-17T04:29:42;100302.59;;;25.21;38.60
34370;BME280;20635;55.812;37.560;2022-10-17T04:32:22;100312.13;;;25.20;38.60
34370;BME280;20635;55.812;37.560;2022-10-17T04:35:17;100299.78;;;25.21;38.59
34370;BME280;20635;55.812;37.560;2022-10-17T04:37:48;100289.38;;;25.21;38.50
34370;BME280;20635;55.812;37.560;2022-10-17T04:40:19;100297.78;;;25.21;38.65
34370;BME280;20635;55.812;37.560;2022-10-17T04:42:45;100296.66;;;25.22;38.49
34370;BME280;20635;55.812;37.560;2022-10-17T04:45:14;100303.09;;;25.23;38.77
34370;BME280;20635;55.812;37.560;2022-10-17T04:47:41;100291.84;;;25.23;38.53
34370;BME280;20635;55.812;37.560;2022-10-17T04:50:07;100287.91;;;25.24;38.56
34370;BME280;20635;55.812;37.560;2022-10-17T04:52:34;100291.53;;;25.24;38.54
34370;BME280;20635;55.812;37.560;2022-10-17T04:55:04;100297.16;;;25.24;38.60
34370;BME280;20635;55.812;37.560;2022-10-17T04:57:33;100295.16;;;25.25;38.51
34370;BME280;20635;55.812;37.560;2022-10-17T05:00:05;100287.91;;;25.24;38.31
34370;BME280;20635;55.812;37.560;2022-10-17T05:02:56;100286.75;;;25.25;38.49
34370;BME280;20635;55.812;37.560;2022-10-17T05:05:24;100290.41;;;25.25;38.27
34370;BME280;20635;55.812;37.560;2022-10-17T05:07:52;100289.56;;;25.25;38.40
34370;BME280;20635;55.812;37.560;2022-10-17T05:10:21;100289.56;;;25.25;38.23
34370;BME280;20635;55.812;37.560;2022-10-17T05:12:49;100284.81;;;25.25;38.28
34370;BME280;20635;55.812;37.560;2022-10-17T05:15:20;100281.13;;;25.25;38.58
34370;BME280;20635;55.812;37.560;2022-10-17T05:17:46;100283.13;;;25.24;38.27
34370;BME280;20635;55.812;37.560;2022-10-17T05:20:12;100272.72;;;25.25;38.31
34370;BME280;20635;55.812;37.560;2022-10-17T05:22:39;100265.16;;;25.25;38.23
34370;BME280;20635;55.812;37.560;2022-10-17T05:25:05;100264.63;;;25.23;38.27
34370;BME280;20635;55.812;37.560;2022-10-17T05:27:31;100269.91;;;25.25;38.07
34370;BME280;20635;55.812;37.560;2022-10-17T05:29:57;100274.69;;;25.24;38.07
34370;BME280;20635;55.812;37.560;2022-10-17T05:32:27;100271.06;;;25.24;38.13
34370;BME280;20635;55.812;37.560;2022-10-17T05:34:52;100275.53;;;25.25;38.06
34370;BME280;20635;55.812;37.560;2022-10-17T05:37:20;100261.50;;;25.25;38.06
34370;BME280;20635;55.812;37.560;2022-10-17T05:39:49;100259.56;;;25.25;38.02
34370;BME280;20635;55.812;37.560;2022-10-17T05:42:15;100245.53;;;25.25;38.03
34370;BME280;20635;55.812;37.560;2022-10-17T05:44:41;100239.91;;;25.25;38.04
34370;BME280;20635;55.812;37.560;2022-10-17T05:47:07;100237.13;;;25.25;37.94
34370;BME280;20635;55.812;37.560;2022-10-17T05:49:33;100241.88;;;25.25;37.96
34370;BME280;20635;55.812;37.560;2022-10-17T05:52:00;100239.06;;;25.25;37.94
34370;BME280;20635;55.812;37.560;2022-10-17T05:54:31;100232.31;;;25.26;37.92
34370;BME280;20635;55.812;37.560;2022-10-17T05:56:57;100235.13;;;25.26;37.91
34370;BME280;20635;55.812;37.560;2022-10-17T05:59:27;100225.56;;;25.27;37.84
34370;BME280;20635;55.812;37.560;2022-10-17T06:02:00;100230.34;;;25.26;37.96
34370;BME280;20635;55.812;37.560;2022-10-17T06:04:26;100240.75;;;25.26;38.09
34370;BME280;20635;55.812;37.560;2022-10-17T06:06:53;100234.31;;;25.25;37.97
34370;BME280;20635;55.812;37.560;2022-10-17T06:09:21;100240.75;;;25.26;37.85
34370;BME280;20635;55.812;37.560;2022-10-17T06:11:49;100244.38;;;25.26;37.81
34370;BME280;20635;55.812;37.560;2022-10-17T06:14:15;100247.19;;;25.26;37.98
34370;BME280;20635;55.812;37.560;2022-10-17T06:16:41;100243.22;;;25.27;37.88
34370;BME280;20635;55.812;37.560;2022-10-17T06:19:10;100236.78;;;25.27;38.01
34370;BME280;20635;55.812;37.560;2022-10-17T06:21:36;100239.59;;;25.27;37.77
34370;BME280;20635;55.812;37.560;2022-10-17T06:24:12;100234.81;;;25.27;37.84
34370;BME280;20635;55.812;37.560;2022-10-17T06:26:40;100234.81;;;25.27;37.75
34370;BME280;20635;55.812;37.560;2022-10-17T06:29:07;100240.41;;;25.27;37.77
34370;BME280;20635;55.812;37.560;2022-10-17T06:31:38;100231.16;;;25.27;37.74
34370;BME280;20635;55.812;37.560;2022-10-17T06:34:04;100232.00;;;25.27;37.94
34370;BME280;20635;55.812;37.560;2022-10-17T06:36:30;100238.44;;;25.28;37.77
34370;BME280;20635;55.812;37.560;2022-10-17T06:38:56;100224.41;;;25.28;37.77
34370;BME280;20635;55.812;37.560;2022-10-17T06:41:28;100220.78;;;25.27;37.62
34370;BME280;20635;55.812;37.560;2022-10-17T06:44:02;100212.38;;;25.27;37.85
34370;BME280;20635;55.812;37.560;2022-10-17T06:47:09;100189.91;;;25.27;37.56
34370;BME280;20635;55.812;37.560;2022-10-17T06:49:35;100187.13;;;25.27;37.81
34370;BME280;20635;55.812;37.560;2022-10-17T06:52:24;100185.13;;;25.28;37.55
34370;BME280;20635;55.812;37.560;2022-10-17T06:55:10;100181.50;;;25.27;37.80
34370;BME280;20635;55.812;37.560;2022-10-17T06:58:07;100190.75;;;25.28;37.64
34370;BME280;20635;55.812;37.560;2022-10-17T07:00:51;100186.28;;;25.27;37.78
34370;BME280;20635;55.812;37.560;2022-10-17T07:03:17;100194.38;;;25.28;37.66
34370;BME280;20635;55.812;37.560;2022-10-17T07:05:49;100189.09;;;25.27;37.74
34370;BME280;20635;55.812;37.560;2022-10-17T07:08:15;100191.56;;;25.28;37.64
34370;BME280;20635;55.812;37.560;2022-10-17T07:10:41;100193.56;;;25.28;37.64
34370;BME280;20635;55.812;37.560;2022-10-17T07:13:07;100176.72;;;25.28;37.42
34370;BME280;20635;55.812;37.560;2022-10-17T07:15:35;100196.34;;;25.28;37.58
34370;BME280;20635;55.812;37.560;2022-10-17T07:18:01;100183.16;;;25.28;37.53
34370;BME280;20635;55.812;37.560;2022-10-17T07:20:27;100186.78;;;25.29;37.54
34370;BME280;20635;55.812;37.560;2022-10-17T07:22:52;100185.97;;;25.28;37.54
34370;BME280;20635;55.812;37.560;2022-10-17T07:25:18;100190.41;;;25.29;37.50
34370;BME280;20635;55.812;37.560;2022-10-17T07:27:50;100193.22;;;25.29;37.53
34370;BME280;20635;55.812;37.560;2022-10-17T07:30:16;100188.47;;;25.30;37.52
34370;BME280;20635;55.812;37.560;2022-10-17T07:32:56;100167.16;;;25.29;37.41
34370;BME280;20635;55.812;37.560;2022-10-17T07:35:21;100179.19;;;25.29;37.46
34370;BME280;20635;55.812;37.560;2022-10-17T07:37:47;100173.59;;;25.29;37.41
34370;BME280;20635;55.812;37.560;2022-10-17T07:40:16;100168.84;;;25.30;37.49
34370;BME280;20635;55.812;37.560;2022-10-17T07:42:42;100169.66;;;25.30;37.47
34370;BME280;20635;55.812;37.560;2022-10-17T07:45:09;100167.66;;;25.31;37.29
34370;BME280;20635;55.812;37.560;2022-10-17T07:47:35;100164.03;;;25.30;37.49
34370;BME280;20635;55.812;37.560;2022-10-17T07:50:03;100166.53;;;25.32;37.43
34370;BME280;20635;55.812;37.560;2022-10-17T07:52:29;100172.13;;;25.32;37.48
34370;BME280;20635;55.812;37.560;2022-10-17T07:54:55;100159.75;;;25.33;37.43
34370;BME280;20635;55.812;37.560;2022-10-17T07:57:23;100160.56;;;25.34;37.41
34370;BME280;20635;55.812;37.560;2022-10-17T07:59:50;100161.72;;;25.33;37.35
34370;BME280;20635;55.812;37.560;2022-10-17T08:02:25;100162.56;;;25.33;37.34
34370;BME280;20635;55.812;37.560;2022-10-17T08:04:52;100168.16;;;25.33;37.40
34370;BME280;20635;55.812;37.560;2022-10-17T08:07:18;100180.22;;;25.34;37.40
34370;BME280;20635;55.812;37.560;2022-10-17T08:09:44;100170.97;;;25.33;37.26
34370;BME280;20635;55.812;37.560;2022-10-17T08:12:10;100169.00;;;25.34;37.33
34370;BME280;20635;55.812;37.560;2022-10-17T08:14:36;100168.16;;;25.33;37.40
34370;BME280;20635;55.812;37.560;2022-10-17T08:17:03;100161.72;;;25.33;37.39
34370;BME280;20635;55.812;37.560;2022-10-17T08:19:29;100174.59;;;25.34;37.24
34370;BME280;20635;55.812;37.560;2022-10-17T08:21:54;100168.16;;;25.33;37.35
34370;BME280;20635;55.812;37.560;2022-10-17T08:24:22;100177.41;;;25.34;37.20
34370;BME280;20635;55.812;37.560;2022-10-17T08:26:47;100166.19;;;25.34;37.32
34370;BME280;20635;55.812;37.560;2022-10-17T08:29:13;100162.56;;;25.33;37.34
34370;BME280;20635;55.812;37.560;2022-10-17T08:31:39;100152.16;;;25.34;37.30
34370;BME280;20635;55.812;37.560;2022-10-17T08:34:05;100156.94;;;25.33;37.21
34370;BME280;20635;55.812;37.560;2022-10-17T08:36:31;100161.72;;;25.33;37.22
34370;BME280;20635;55.812;37.560;2022-10-17T08:38:57;100154.13;;;25.33;37.28
34370;BME280;20635;55.812;37.560;2022-10-17T08:46:35;100130.88;;;25.33;37.27
34370;BME280;20635;55.812;37.560;2022-10-17T08:49:02;100132.84;;;25.32;37.28
34370;BME280;20635;55.812;37.560;2022-10-17T08:51:32;100130.06;;;25.32;37.42
34370;BME280;20635;55.812;37.560;2022-10-17T08:56:36;100150.84;;;25.31;37.25
34370;BME280;20635;55.812;37.560;2022-10-17T08:59:09;100158.44;;;25.30;37.16
34370;BME280;20635;55.812;37.560;2022-10-17T09:01:47;100158.09;;;25.32;37.26
34370;BME280;20635;55.812;37.560;2022-10-17T09:17:12;100123.63;;;25.32;37.25
34370;BME280;20635;55.812;37.560;2022-10-17T09:19:41;100122.47;;;25.33;37.36
34370;BME280;20635;55.812;37.560;2022-10-17T09:22:13;100142.09;;;25.33;37.23
34370;BME280;20635;55.812;37.560;2022-10-17T09:29:45;100145.22;;;25.31;37.18
34370;BME280;20635;55.812;37.560;2022-10-17T09:32:14;100150.03;;;25.30;37.31
34370;BME280;20635;55.812;37.560;2022-10-17T09:34:41;100147.22;;;25.30;37.05
34370;BME280;20635;55.812;37.560;2022-10-17T09:37:14;100126.75;;;25.30;37.25
34370;BME280;20635;55.812;37.560;2022-10-17T09:39:40;100119.97;;;25.31;37.17
34370;BME280;20635;55.812;37.560;2022-10-17T09:42:08;100122.78;;;25.31;37.23
34370;BME280;20635;55.812;37.560;2022-10-17T09:44:41;100139.63;;;25.31;37.23
34370;BME280;20635;55.812;37.560;2022-10-17T09:49:42;100124.78;;;25.30;37.10
34370;BME280;20635;55.812;37.560;2022-10-17T09:52:10;100129.22;;;25.32;37.22
34370;BME280;20635;55.812;37.560;2022-10-17T09:57:03;100106.78;;;25.32;37.16
34370;BME280;20635;55.812;37.560;2022-10-17T09:59:30;100093.91;;;25.30;37.31
34370;BME280;20635;55.812;37.560;2022-10-17T10:02:07;100097.53;;;25.31;37.23
34370;BME280;20635;55.812;37.560;2022-10-17T10:04:34;100099.53;;;25.30;37.23
34370;BME280;20635;55.812;37.560;2022-10-17T10:07:04;100104.81;;;25.32;37.22
34370;BME280;20635;55.812;37.560;2022-10-17T10:09:30;100091.94;;;25.31;37.16
34370;BME280;20635;55.812;37.560;2022-10-17T10:11:57;100082.69;;;25.30;37.40
34370;BME280;20635;55.812;37.560;2022-10-17T10:16:52;100080.72;;;25.31;37.12
34370;BME280;20635;55.812;37.560;2022-10-17T10:19:27;100077.09;;;25.30;37.25
34370;BME280;20635;55.812;37.560;2022-10-17T10:21:57;100075.09;;;25.31;37.22
34370;BME280;20635;55.812;37.560;2022-10-17T10:24:23;100068.66;;;25.30;37.28
34370;BME280;20635;55.812;37.560;2022-10-17T10:26:50;100067.50;;;25.32;37.32
34370;BME280;20635;55.812;37.560;2022-10-17T10:29:26;100053.50;;;25.32;37.37
34370;BME280;20635;55.812;37.560;2022-10-17T10:34:44;100059.09;;;25.32;37.08
34370;BME280;20635;55.812;37.560;2022-10-17T10:37:18;100054.66;;;25.30;37.27
34370;BME280;20635;55.812;37.560;2022-10-17T10:39:48;100063.88;;;25.31;37.20
34370;BME280;20635;55.812;37.560;2022-10-17T10:44:46;100064.72;;;25.32;37.24
34370;BME280;20635;55.812;37.560;2022-10-17T10:47:17;100062.72;;;25.32;37.24
34370;BME280;20635;55.812;37.560;2022-10-17T10:49:44;100052.31;;;25.33;37.14
34370;BME280;20635;55.812;37.560;2022-10-17T10:52:29;100036.66;;;25.32;37.22
34370;BME280;20635;55.812;37.560;2022-10-17T10:55:17;100037.47;;;25.32;37.22
34370;BME280;20635;55.812;37.560;2022-10-17T10:57:45;100030.72;;;25.33;37.31
34370;BME280;20635;55.812;37.560;2022-10-17T11:00:13;100031.88;;;25.32;37.19
34370;BME280;20635;55.812;37.560;2022-10-17T11:02:43;100027.09;;;25.33;37.11
34370;BME280;20635;55.812;37.560;2022-10-17T11:05:15;100020.66;;;25.32;37.19
34370;BME280;20635;55.812;37.560;2022-10-17T11:12:40;100021.47;;;25.33;37.15
34370;BME280;20635;55.812;37.560;2022-10-17T11:18:13;100034.34;;;25.34;37.39
34370;BME280;20635;55.812;37.560;2022-10-17T11:23:40;100029.56;;;25.34;37.19
34370;BME280;20635;55.812;37.560;2022-10-17T11:26:10;100037.16;;;25.34;37.19
34370;BME280;20635;55.812;37.560;2022-10-17T11:28:37;100034.34;;;25.34;37.28
34370;BME280;20635;55.812;37.560;2022-10-17T11:31:05;100039.94;;;25.34;37.12
34370;BME280;20635;55.812;37.560;2022-10-17T11:33:42;100023.13;;;25.34;37.17
34370;BME280;20635;55.812;37.560;2022-10-17T11:36:10;100020.31;;;25.34;37.39
34370;BME280;20635;55.812;37.560;2022-10-17T11:41:14;100010.25;;;25.33;37.48
34370;BME280;20635;55.812;37.560;2022-10-17T11:43:50;100009.91;;;25.34;37.13
34370;BME280;20635;55.812;37.560;2022-10-17T11:46:21;99995.06;;;25.34;37.33
34370;BME280;20635;55.812;37.560;2022-10-17T11:51:16;99988.63;;;25.33;37.39
34370;BME280;20635;55.812;37.560;2022-10-17T11:53:44;99992.25;;;25.34;37.40
34370;BME280;20635;55.812;37.560;2022-10-17T11:56:11;99981.88;;;25.34;37.27
34370;BME280;20635;55.812;37.560;2022-10-17T12:06:22;99981.88;;;25.34;37.36
34370;BME280;20635;55.812;37.560;2022-10-17T12:13:53;99978.75;;;25.36;37.20
34370;BME280;20635;55.812;37.560;2022-10-17T12:24:37;99950.19;;;25.34;37.23
34370;BME280;20635;55.812;37.560;2022-10-17T12:27:29;99952.69;;;25.35;37.16
34370;BME280;20635;55.812;37.560;2022-10-17T12:30:00;99959.41;;;25.34;37.31
34370;BME280;20635;55.812;37.560;2022-10-17T12:32:27;99987.47;;;25.34;37.41
34370;BME280;20635;55.812;37.560;2022-10-17T12:34:53;99993.09;;;25.34;37.13
34370;BME280;20635;55.812;37.560;2022-10-17T12:40:40;99979.41;;;25.33;37.10
34370;BME280;20635;55.812;37.560;2022-10-17T12:42:50;99998.84;;;25.29;37.19
34370;BME280;20635;55.812;37.560;2022-10-17T12:48:00;99995.69;;;25.22;37.02
34370;BME280;20635;55.812;37.560;2022-10-17T12:53:10;100010.84;;;25.12;37.00
34370;BME280;20635;55.812;37.560;2022-10-17T12:55:40;100030.06;;;25.05;37.25
34370;BME280;20635;55.812;37.560;2022-10-17T12:58:10;100029.88;;;25.01;37.36
34370;BME280;20635;55.812;37.560;2022-10-17T13:03:14;100053.09;;;24.93;37.39
34370;BME280;20635;55.812;37.560;2022-10-17T13:05:42;100056.22;;;24.92;37.49
34370;BME280;20635;55.812;37.560;2022-10-17T13:10:48;100056.69;;;24.85;37.19
34370;BME280;20635;55.812;37.560;2022-10-17T13:13:35;100067.72;;;24.82;37.29
34370;BME280;20635;55.812;37.560;2022-10-17T13:16:01;100074.28;;;24.77;37.43
34370;BME280;20635;55.812;37.560;2022-10-17T13:18:28;100072.91;;;24.74;37.48
34370;BME280;20635;55.812;37.560;2022-10-17T13:21:04;100071.59;;;24.72;37.23
34370;BME280;20635;55.812;37.560;2022-10-17T13:23:31;100068.59;;;24.68;37.25
34370;BME280;20635;55.812;37.560;2022-10-17T13:26:04;100061.66;;;24.66;37.54
34370;BME280;20635;55.812;37.560;2022-10-17T13:28:30;100067.59;;;24.64;37.35
34370;BME280;20635;55.812;37.560;2022-10-17T13:30:56;100067.91;;;24.63;37.62
34370;BME280;20635;55.812;37.560;2022-10-17T13:33:30;100056.19;;;24.61;37.40
34370;BME280;20635;55.812;37.560;2022-10-17T13:35:56;100061.28;;;24.59;37.61
34370;BME280;20635;55.812;37.560;2022-10-17T13:38:24;100049.56;;;24.57;37.43
34370;BME280;20635;55.812;37.560;2022-10-17T13:40:50;100045.09;;;24.55;37.54
34370;BME280;20635;55.812;37.560;2022-10-17T13:43:18;100036.19;;;24.53;37.40
34370;BME280;20635;55.812;37.560;2022-10-17T13:45:45;100035.69;;;24.51;37.77
34370;BME280;20635;55.812;37.560;2022-10-17T13:48:23;100026.78;;;24.49;37.39
34370;BME280;20635;55.812;37.560;2022-10-17T13:50:54;100017.84;;;24.47;37.63
34370;BME280;20635;55.812;37.560;2022-10-17T13:53:31;100020.16;;;24.45;37.58
34370;BME280;20635;55.812;37.560;2022-10-17T13:56:01;100005.94;;;24.42;37.61
34370;BME280;20635;55.812;37.560;2022-10-17T13:58:41;100005.13;;;24.41;37.69
34370;BME280;20635;55.812;37.560;2022-10-17T14:01:07;99999.03;;;24.39;37.70
34370;BME280;20635;55.812;37.560;2022-10-17T14:03:33;99983.34;;;24.38;37.71
34370;BME280;20635;55.812;37.560;2022-10-17T14:06:04;99987.59;;;24.36;37.78
34370;BME280;20635;55.812;37.560;2022-10-17T14:08:31;99998.81;;;24.36;37.62
34370;BME280;20635;55.812;37.560;2022-10-17T14:10:57;99986.25;;;24.33;37.75
34370;BME280;20635;55.812;37.560;2022-10-17T14:13:24;99987.41;;;24.32;37.66
34370;BME280;20635;55.812;37.560;2022-10-17T14:15:51;99984.09;;;24.30;37.67
34370;BME280;20635;55.812;37.560;2022-10-17T14:18:26;99978.50;;;24.30;37.72
34370;BME280;20635;55.812;37.560;2022-10-17T14:20:53;99989.19;;;24.28;37.96
34370;BME280;20635;55.812;37.560;2022-10-17T14:26:03;99992.94;;;24.23;37.71
34370;BME280;20635;55.812;37.560;2022-10-17T14:28:29;99992.44;;;24.21;37.59
34370;BME280;20635;55.812;37.560;2022-10-17T14:31:07;99990.25;;;24.18;37.87
34370;BME280;20635;55.812;37.560;2022-10-17T14:33:33;99993.69;;;24.15;38.03
34370;BME280;20635;55.812;37.560;2022-10-17T14:36:00;99991.22;;;24.14;37.78
34370;BME280;20635;55.812;37.560;2022-10-17T14:38:27;99992.38;;;24.13;37.69
34370;BME280;20635;55.812;37.560;2022-10-17T14:41:27;99999.09;;;24.12;37.86
34370;BME280;20635;55.812;37.560;2022-10-17T14:43:45;100000.91;;;24.08;37.81
34370;BME280;20635;55.812;37.560;2022-10-17T14:46:16;99988.34;;;24.05;37.77
34370;BME280;20635;55.812;37.560;2022-10-17T14:48:42;99992.09;;;24.00;38.09
34370;BME280;20635;55.812;37.560;2022-10-17T14:51:12;99970.31;;;23.97;37.83
34370;BME280;20635;55.812;37.560;2022-10-17T14:53:40;99974.59;;;23.95;38.23
34370;BME280;20635;55.812;37.560;2022-10-17T14:56:22;99978.84;;;23.92;37.95